createdAt,value
2017-04-12T03:00:37.126Z,1015.26
2017-04-12T03:01:02.853Z,1015.27
2017-04-12T03:01:28.435Z,1015.31
2017-04-12T03:01:54.003Z,1015.28
2017-04-12T03:02:20.253Z,1015.25
2017-04-12T03:02:45.224Z,1015.31
2017-04-12T03:03:10.794Z,1015.27
2017-04-12T03:03:36.344Z,1015.3
2017-04-12T03:04:01.984Z,1015.22
2017-04-12T03:04:27.577Z,1015.25
2017-04-12T03:04:53.136Z,1015.24
2017-04-12T03:05:18.746Z,1015.22
2017-04-12T03:05:44.317Z,1015.23
2017-04-12T03:06:09.899Z,1015.26
2017-04-12T03:06:35.457Z,1015.19
2017-04-12T03:07:01.024Z,1015.26
2017-04-12T03:07:26.609Z,1015.22
2017-04-12T03:07:52.181Z,1015.25
2017-04-12T03:08:17.745Z,1015.22
2017-04-12T03:08:43.305Z,1015.21
2017-04-12T03:09:08.885Z,1015.22
2017-04-12T03:09:34.456Z,1015.21
2017-04-12T03:10:00.018Z,1015.23
2017-04-12T03:10:25.563Z,1015.25
2017-04-12T03:10:51.201Z,1015.24
2017-04-12T03:11:16.780Z,1015.25
2017-04-12T03:11:42.347Z,1015.22
2017-04-12T03:12:07.896Z,1015.21
2017-04-12T03:12:33.461Z,1015.26
2017-04-12T03:12:59.111Z,1015.22
2017-04-12T03:13:24.683Z,1015.21
2017-04-12T03:13:50.246Z,1015.18
2017-04-12T03:14:15.822Z,1015.21
2017-04-12T03:14:41.493Z,1015.18
2017-04-12T03:15:07.049Z,1015.16
2017-04-12T03:15:32.623Z,1015.14
2017-04-12T03:15:58.354Z,1015.19
2017-04-12T03:16:23.931Z,1015.16
2017-04-12T03:16:49.488Z,1015.14
2017-04-12T03:17:15.041Z,1015.16
2017-04-12T03:17:40.601Z,1015.1
2017-04-12T03:18:06.188Z,1015.1
2017-04-12T03:18:31.771Z,1015.08
2017-04-12T03:18:57.341Z,1015.09
2017-04-12T03:19:22.953Z,1015.01
2017-04-12T03:19:48.515Z,1015.04
2017-04-12T03:20:14.081Z,1014.99
2017-04-12T03:20:39.678Z,1015.03
2017-04-12T03:21:05.246Z,1015
2017-04-12T03:21:30.803Z,1015.03
2017-04-12T03:21:56.349Z,1014.95
2017-04-12T03:22:22.111Z,1014.96
2017-04-12T03:22:47.661Z,1014.98
2017-04-12T03:23:13.209Z,1014.96
2017-04-12T03:23:38.777Z,1014.94
2017-04-12T03:24:04.438Z,1014.93
2017-04-12T03:24:30.003Z,1014.92
2017-04-12T03:24:55.633Z,1014.89
2017-04-12T03:25:21.313Z,1014.92
2017-04-12T03:25:46.874Z,1014.83
2017-04-12T03:26:12.423Z,1014.89
2017-04-12T03:26:37.976Z,1014.85
2017-04-12T03:27:03.564Z,1014.86
2017-04-12T03:27:29.112Z,1014.9
2017-04-12T03:27:54.669Z,1014.91
2017-04-12T03:28:20.248Z,1014.9
2017-04-12T03:28:45.813Z,1014.9
2017-04-12T03:29:11.470Z,1014.83
2017-04-12T03:29:37.003Z,1014.86
2017-04-12T03:30:02.547Z,1014.85
2017-04-12T03:30:28.108Z,1014.91
2017-04-12T03:30:53.658Z,1014.83
2017-04-12T03:31:19.199Z,1014.94
2017-04-12T03:31:44.760Z,1014.87
2017-04-12T03:32:10.310Z,1014.88
2017-04-12T03:32:35.863Z,1014.89
2017-04-12T03:33:01.435Z,1014.82
2017-04-12T03:33:27.000Z,1014.86
2017-04-12T03:33:52.583Z,1014.79
2017-04-12T03:34:18.136Z,1014.83
2017-04-12T03:34:43.790Z,1014.79
2017-04-12T03:35:09.351Z,1014.76
2017-04-12T03:35:35.550Z,1014.75
2017-04-12T03:36:01.107Z,1014.72
2017-04-12T03:36:26.666Z,1014.75
2017-04-12T03:36:52.229Z,1014.74
2017-04-12T03:37:17.789Z,1014.76
2017-04-12T03:37:43.360Z,1014.75
2017-04-12T03:38:08.933Z,1014.7
2017-04-12T03:38:34.522Z,1014.68
2017-04-12T03:39:00.079Z,1014.7
2017-04-12T03:39:25.703Z,1014.7
2017-04-12T03:39:51.262Z,1014.69
2017-04-12T03:40:16.849Z,1014.65
2017-04-12T03:40:42.389Z,1014.75
2017-04-12T03:41:07.949Z,1014.72
2017-04-12T03:41:33.520Z,1014.63
2017-04-12T03:41:59.073Z,1014.68
2017-04-12T03:42:24.640Z,1014.7
2017-04-12T03:42:50.197Z,1014.65
2017-04-12T03:43:15.813Z,1014.62
2017-04-12T03:43:41.435Z,1014.62
2017-04-12T03:44:06.985Z,1014.62
2017-04-12T03:44:32.543Z,1014.63
2017-04-12T03:44:58.134Z,1014.59
2017-04-12T03:45:23.703Z,1014.64
2017-04-12T03:45:49.261Z,1014.58
2017-04-12T03:46:14.822Z,1014.58
2017-04-12T03:46:40.405Z,1014.56
2017-04-12T03:47:05.984Z,1014.53
2017-04-12T03:47:31.593Z,1014.57
2017-04-12T03:47:57.132Z,1014.58
2017-04-12T03:48:22.701Z,1014.61
2017-04-12T03:48:48.256Z,1014.62
2017-04-12T03:49:13.804Z,1014.58
2017-04-12T03:49:39.373Z,1014.54
2017-04-12T03:50:04.933Z,1014.48
2017-04-12T03:50:30.506Z,1014.53
2017-04-12T03:50:56.074Z,1014.59
2017-04-12T03:51:21.642Z,1014.54
2017-04-12T03:51:47.190Z,1014.56
2017-04-12T03:52:12.757Z,1014.58
2017-04-12T03:52:38.300Z,1014.57
2017-04-12T03:53:03.941Z,1014.56
2017-04-12T03:53:29.573Z,1014.53
2017-04-12T03:53:55.132Z,1014.57
2017-04-12T03:54:20.702Z,1014.59
2017-04-12T03:54:46.272Z,1014.55
2017-04-12T03:55:11.825Z,1014.58
2017-04-12T03:55:37.370Z,1014.57
2017-04-12T03:56:02.943Z,1014.53
2017-04-12T03:56:28.512Z,1014.53
2017-04-12T03:56:54.064Z,1014.59
2017-04-12T03:57:19.625Z,1014.56
2017-04-12T03:57:45.191Z,1014.56
2017-04-12T03:58:10.749Z,1014.55
2017-04-12T03:58:36.295Z,1014.56
2017-04-12T03:59:01.886Z,1014.6
2017-04-12T03:59:27.495Z,1014.61
2017-04-12T03:59:53.054Z,1014.6
2017-04-12T04:00:18.613Z,1014.59
2017-04-12T04:00:44.165Z,1014.55
2017-04-12T04:01:09.698Z,1014.55
2017-04-12T04:01:35.274Z,1014.53
2017-04-12T04:02:00.823Z,1014.49
2017-04-12T04:02:26.359Z,1014.58
2017-04-12T04:02:51.960Z,1014.56
2017-04-12T04:03:17.503Z,1014.54
2017-04-12T04:03:43.048Z,1014.54
2017-04-12T04:04:08.591Z,1014.55
2017-04-12T04:04:34.130Z,1014.52
2017-04-12T04:04:59.671Z,1014.53
2017-04-12T04:05:58.009Z,1014.55
2017-04-12T04:06:23.593Z,1014.56
2017-04-12T04:06:49.170Z,1014.54
2017-04-12T04:07:14.745Z,1014.54
2017-04-12T04:07:40.302Z,1014.55
2017-04-12T04:08:05.863Z,1014.53
2017-04-12T04:08:31.423Z,1014.56
2017-04-12T04:08:57.093Z,1014.57
2017-04-12T04:09:22.644Z,1014.54
2017-04-12T04:09:48.198Z,1014.55
2017-04-12T04:10:13.739Z,1014.57
2017-04-12T04:10:40.098Z,1014.57
2017-04-12T04:11:05.652Z,1014.54
2017-04-12T04:11:31.197Z,1014.56
2017-04-12T04:11:56.766Z,1014.64
2017-04-12T04:12:22.311Z,1014.59
2017-04-12T04:12:47.949Z,1014.54
2017-04-12T04:13:13.609Z,1014.52
2017-04-12T04:13:39.141Z,1014.52
2017-04-12T04:14:04.722Z,1014.59
2017-04-12T04:14:30.392Z,1014.52
2017-04-12T04:14:55.978Z,1014.55
2017-04-12T04:15:21.543Z,1014.5
2017-04-12T04:15:47.108Z,1014.47
2017-04-12T04:16:12.669Z,1014.5
2017-04-12T04:16:38.222Z,1014.5
2017-04-12T04:17:03.803Z,1014.51
2017-04-12T04:17:29.362Z,1014.46
2017-04-12T04:17:54.904Z,1014.52
2017-04-12T04:18:20.474Z,1014.51
2017-04-12T04:18:46.030Z,1014.47
2017-04-12T04:19:11.590Z,1014.48
2017-04-12T04:19:37.169Z,1014.49
2017-04-12T04:20:02.723Z,1014.46
2017-04-12T04:20:28.302Z,1014.49
2017-04-12T04:20:53.893Z,1014.43
2017-04-12T04:21:19.474Z,1014.43
2017-04-12T04:21:45.132Z,1014.43
2017-04-12T04:22:10.719Z,1014.45
2017-04-12T04:22:36.237Z,1014.45
2017-04-12T04:23:01.794Z,1014.4
2017-04-12T04:23:27.382Z,1014.48
2017-04-12T04:23:52.942Z,1014.42
2017-04-12T04:24:18.491Z,1014.42
2017-04-12T04:24:44.050Z,1014.48
2017-04-12T04:25:09.613Z,1014.44
2017-04-12T04:25:35.191Z,1014.43
2017-04-12T04:26:00.752Z,1014.43
2017-04-12T04:26:26.342Z,1014.4
2017-04-12T04:26:51.900Z,1014.39
2017-04-12T04:27:17.458Z,1014.41
2017-04-12T04:27:43.013Z,1014.37
2017-04-12T04:28:08.552Z,1014.35
2017-04-12T04:28:34.110Z,1014.33
2017-04-12T04:28:59.670Z,1014.32
2017-04-12T04:29:25.244Z,1014.34
2017-04-12T04:29:50.840Z,1014.35
2017-04-12T04:30:16.403Z,1014.28
2017-04-12T04:30:41.972Z,1014.32
2017-04-12T04:31:07.511Z,1014.25
2017-04-12T04:31:33.070Z,1014.31
2017-04-12T04:31:58.631Z,1014.31
2017-04-12T04:32:24.224Z,1014.28
2017-04-12T04:32:49.801Z,1014.31
2017-04-12T04:33:15.374Z,1014.29
2017-04-12T04:33:40.945Z,1014.36
2017-04-12T04:34:06.501Z,1014.37
2017-04-12T04:34:32.092Z,1014.33
2017-04-12T04:34:57.657Z,1014.35
2017-04-12T04:35:23.237Z,1014.37
2017-04-12T04:35:48.748Z,1014.4
2017-04-12T04:36:14.302Z,1014.42
2017-04-12T04:36:39.849Z,1014.42
2017-04-12T04:37:05.427Z,1014.42
2017-04-12T04:37:30.991Z,1014.41
2017-04-12T04:37:56.546Z,1014.43
2017-04-12T04:38:22.088Z,1014.42
2017-04-12T04:38:47.672Z,1014.43
2017-04-12T04:39:13.230Z,1014.41
2017-04-12T04:39:38.803Z,1014.41
2017-04-12T04:40:04.500Z,1014.38
2017-04-12T04:40:30.059Z,1014.39
2017-04-12T04:40:55.777Z,1014.42
2017-04-12T04:41:21.429Z,1014.41
2017-04-12T04:41:47.028Z,1014.4
2017-04-12T04:42:12.591Z,1014.35
2017-04-12T04:42:38.150Z,1014.33
2017-04-12T04:43:03.710Z,1014.37
2017-04-12T04:43:29.256Z,1014.4
2017-04-12T04:43:54.830Z,1014.4
2017-04-12T04:44:20.542Z,1014.4
2017-04-12T04:44:46.104Z,1014.41
2017-04-12T04:45:11.670Z,1014.41
2017-04-12T04:45:37.235Z,1014.42
2017-04-12T04:46:02.795Z,1014.33
2017-04-12T04:46:28.362Z,1014.32
2017-04-12T04:46:53.920Z,1014.34
2017-04-12T04:47:19.468Z,1014.31
2017-04-12T04:47:45.094Z,1014.28
2017-04-12T04:48:10.699Z,1014.28
2017-04-12T04:48:36.255Z,1014.31
2017-04-12T04:49:01.810Z,1014.33
2017-04-12T04:49:27.644Z,1014.35
2017-04-12T04:49:53.232Z,1014.29
2017-04-12T04:50:18.865Z,1014.31
2017-04-12T04:50:44.412Z,1014.34
2017-04-12T04:51:09.964Z,1014.28
2017-04-12T04:51:35.531Z,1014.31
2017-04-12T04:52:01.183Z,1014.28
2017-04-12T04:52:26.805Z,1014.25
2017-04-12T04:52:52.380Z,1014.25
2017-04-12T04:53:17.955Z,1014.31
2017-04-12T04:53:43.520Z,1014.25
2017-04-12T04:54:09.069Z,1014.24
2017-04-12T04:54:34.622Z,1014.24
2017-04-12T04:55:00.228Z,1014.25
2017-04-12T04:55:25.768Z,1014.29
2017-04-12T04:55:51.331Z,1014.27
2017-04-12T04:56:16.909Z,1014.24
2017-04-12T04:56:42.473Z,1014.21
2017-04-12T04:57:08.133Z,1014.24
2017-04-12T04:57:33.702Z,1014.23
2017-04-12T04:57:59.249Z,1014.21
2017-04-12T04:58:24.813Z,1014.22
2017-04-12T04:58:50.493Z,1014.23
2017-04-12T04:59:16.055Z,1014.19
2017-04-12T04:59:41.600Z,1014.2
2017-04-12T05:00:07.159Z,1014.23
2017-04-12T05:00:32.844Z,1014.24
2017-04-12T05:00:58.404Z,1014.23
2017-04-12T05:01:24.141Z,1014.22
2017-04-12T05:01:49.761Z,1014.22
2017-04-12T05:02:15.323Z,1014.21
2017-04-12T05:02:40.874Z,1014.19
2017-04-12T05:03:06.444Z,1014.15
2017-04-12T05:03:32.196Z,1014.18
2017-04-12T05:03:57.787Z,1014.16
2017-04-12T05:04:23.370Z,1014.21
2017-04-12T05:04:48.952Z,1014.18
2017-04-12T05:05:14.521Z,1014.18
2017-04-12T05:05:40.143Z,1014.12
2017-04-12T05:06:05.697Z,1014.17
2017-04-12T05:06:31.276Z,1014.1
2017-04-12T05:06:56.879Z,1014.11
2017-04-12T05:07:22.442Z,1014.16
2017-04-12T05:07:48.008Z,1014.15
2017-04-12T05:08:13.564Z,1014.13
2017-04-12T05:08:39.121Z,1014.15
2017-04-12T05:09:04.695Z,1014.13
2017-04-12T05:09:30.279Z,1014.1
2017-04-12T05:09:55.862Z,1014.2
2017-04-12T05:10:21.410Z,1014.15
2017-04-12T05:10:47.112Z,1014.22
2017-04-12T05:11:12.681Z,1014.16
2017-04-12T05:11:38.232Z,1014.22
2017-04-12T05:12:03.789Z,1014.17
2017-04-12T05:12:29.329Z,1014.15
2017-04-12T05:12:54.880Z,1014.17
2017-04-12T05:13:20.469Z,1014.16
2017-04-12T05:13:46.032Z,1014.16
2017-04-12T05:14:11.609Z,1014.17
2017-04-12T05:14:37.238Z,1014.13
2017-04-12T05:15:02.900Z,1014.11
2017-04-12T05:15:28.453Z,1014.12
2017-04-12T05:15:54.070Z,1014.1
2017-04-12T05:16:19.691Z,1014.16
2017-04-12T05:16:45.282Z,1014.11
2017-04-12T05:17:10.913Z,1014.12
2017-04-12T05:17:36.469Z,1014.04
2017-04-12T05:18:02.044Z,1014.05
2017-04-12T05:18:27.592Z,1014.03
2017-04-12T05:18:53.210Z,1014.04
2017-04-12T05:19:18.766Z,1014.07
2017-04-12T05:19:44.334Z,1014.02
2017-04-12T05:20:09.946Z,1013.95
2017-04-12T05:20:35.517Z,1013.97
2017-04-12T05:21:01.102Z,1013.96
2017-04-12T05:21:26.661Z,1014
2017-04-12T05:21:52.218Z,1014
2017-04-12T05:22:17.760Z,1014.02
2017-04-12T05:22:43.409Z,1014
2017-04-12T05:23:08.964Z,1013.94
2017-04-12T05:23:34.498Z,1014.01
2017-04-12T05:24:00.044Z,1014.07
2017-04-12T05:24:25.604Z,1014.05
2017-04-12T05:24:51.158Z,1014.08
2017-04-12T05:25:16.751Z,1014.1
2017-04-12T05:25:42.293Z,1014.12
2017-04-12T05:26:07.911Z,1014.14
2017-04-12T05:26:33.485Z,1014.16
2017-04-12T05:26:59.057Z,1014.1
2017-04-12T05:27:24.619Z,1014.08
2017-04-12T05:27:50.171Z,1014.05
2017-04-12T05:28:15.739Z,1014.08
2017-04-12T05:28:41.455Z,1014.08
2017-04-12T05:29:07.003Z,1014.12
2017-04-12T05:29:32.557Z,1014.1
2017-04-12T05:29:58.196Z,1014.04
2017-04-12T05:30:23.773Z,1014.03
2017-04-12T05:30:49.344Z,1014.04
2017-04-12T05:31:14.990Z,1014.02
2017-04-12T05:31:40.600Z,1014.05
2017-04-12T05:32:06.154Z,1014.04
2017-04-12T05:32:31.712Z,1014.02
2017-04-12T05:32:57.274Z,1013.98
2017-04-12T05:33:22.833Z,1014.05
2017-04-12T05:33:48.422Z,1014.04
2017-04-12T05:34:13.974Z,1014.04
2017-04-12T05:34:39.544Z,1014.01
2017-04-12T05:35:05.109Z,1013.99
2017-04-12T05:35:30.675Z,1013.98
2017-04-12T05:35:56.239Z,1013.91
2017-04-12T05:36:21.801Z,1013.94
2017-04-12T05:36:47.363Z,1013.95
2017-04-12T05:37:12.913Z,1013.96
2017-04-12T05:37:38.481Z,1013.97
2017-04-12T05:38:04.054Z,1014
2017-04-12T05:38:29.614Z,1013.96
2017-04-12T05:38:55.153Z,1013.93
2017-04-12T05:39:20.710Z,1013.97
2017-04-12T05:39:46.342Z,1013.97
2017-04-12T05:40:11.903Z,1013.98
2017-04-12T05:40:37.466Z,1014
2017-04-12T05:41:03.030Z,1013.99
2017-04-12T05:41:28.599Z,1013.97
2017-04-12T05:41:54.160Z,1013.89
2017-04-12T05:42:19.733Z,1013.93
2017-04-12T05:42:45.300Z,1013.96
2017-04-12T05:43:10.871Z,1013.88
2017-04-12T05:43:36.423Z,1013.86
2017-04-12T05:44:01.990Z,1013.86
2017-04-12T05:44:27.564Z,1013.87
2017-04-12T05:44:53.165Z,1013.87
2017-04-12T05:45:18.748Z,1013.89
2017-04-12T05:45:44.299Z,1013.89
2017-04-12T05:46:09.861Z,1013.88
2017-04-12T05:46:35.412Z,1013.84
2017-04-12T05:47:01.091Z,1013.84
2017-04-12T05:47:26.652Z,1013.89
2017-04-12T05:47:52.226Z,1013.85
2017-04-12T05:48:17.785Z,1013.79
2017-04-12T05:48:43.360Z,1013.82
2017-04-12T05:49:09.013Z,1013.8
2017-04-12T05:49:34.590Z,1013.86
2017-04-12T05:50:00.197Z,1013.88
2017-04-12T05:50:25.834Z,1013.86
2017-04-12T05:50:51.392Z,1013.88
2017-04-12T05:51:16.968Z,1013.83
2017-04-12T05:51:42.553Z,1013.86
2017-04-12T05:52:08.104Z,1013.81
2017-04-12T05:52:33.661Z,1013.79
2017-04-12T05:52:59.222Z,1013.87
2017-04-12T05:53:24.859Z,1013.8
2017-04-12T05:53:50.430Z,1013.81
2017-04-12T05:54:15.991Z,1013.81
2017-04-12T05:54:41.554Z,1013.77
2017-04-12T05:55:07.276Z,1013.83
2017-04-12T05:55:32.852Z,1013.83
2017-04-12T05:55:58.427Z,1013.84
2017-04-12T05:56:23.993Z,1013.82
2017-04-12T05:56:49.555Z,1013.86
2017-04-12T05:57:15.126Z,1013.83
2017-04-12T05:57:40.690Z,1013.82
2017-04-12T05:58:06.245Z,1013.82
2017-04-12T05:58:31.845Z,1013.74
2017-04-12T05:58:57.421Z,1013.77
2017-04-12T05:59:22.984Z,1013.74
2017-04-12T05:59:48.554Z,1013.74
2017-04-12T06:00:14.130Z,1013.73
2017-04-12T06:01:12.490Z,1013.73
2017-04-12T06:01:38.059Z,1013.73
2017-04-12T06:02:03.606Z,1013.67
2017-04-12T06:02:29.161Z,1013.69
2017-04-12T06:02:54.831Z,1013.6
2017-04-12T06:03:20.565Z,1013.53
2017-04-12T06:03:46.127Z,1013.62
2017-04-12T06:04:11.676Z,1013.63
2017-04-12T06:04:37.223Z,1013.68
2017-04-12T06:05:02.858Z,1013.64
2017-04-12T06:05:28.433Z,1013.64
2017-04-12T06:06:37.115Z,1013.77
2017-04-12T06:07:02.683Z,1013.74
2017-04-12T06:07:28.273Z,1013.68
2017-04-12T06:07:53.948Z,1013.71
2017-04-12T06:08:19.526Z,1013.72
2017-04-12T06:08:45.195Z,1013.72
2017-04-12T06:09:10.813Z,1013.76
2017-04-12T06:09:36.383Z,1013.73
2017-04-12T06:10:02.085Z,1013.73
2017-04-12T06:10:27.709Z,1013.69
2017-04-12T06:10:53.306Z,1013.61
2017-04-12T06:11:19.002Z,1013.65
2017-04-12T06:11:44.675Z,1013.62
2017-04-12T06:12:10.203Z,1013.64
2017-04-12T06:12:35.864Z,1013.65
2017-04-12T06:13:01.535Z,1013.62
2017-04-12T06:13:27.183Z,1013.62
2017-04-12T06:13:52.759Z,1013.67
2017-04-12T06:14:18.379Z,1013.64
2017-04-12T06:14:43.988Z,1013.57
2017-04-12T06:15:09.542Z,1013.58
2017-04-12T06:15:35.162Z,1013.63
2017-04-12T06:16:01.014Z,1013.63
2017-04-12T06:16:26.588Z,1013.62
2017-04-12T06:16:52.247Z,1013.65
2017-04-12T06:17:17.804Z,1013.64
2017-04-12T06:17:43.373Z,1013.63
2017-04-12T06:18:08.954Z,1013.62
2017-04-12T06:18:34.549Z,1013.61
2017-04-12T06:19:00.372Z,1013.61
2017-04-12T06:19:26.072Z,1013.6
2017-04-12T06:19:51.854Z,1013.59
2017-04-12T06:20:17.509Z,1013.49
2017-04-12T06:20:43.159Z,1013.56
2017-04-12T06:21:08.704Z,1013.53
2017-04-12T06:23:00.612Z,1013.49
2017-04-12T06:23:26.268Z,1013.48
2017-04-12T06:23:51.912Z,1013.47
2017-04-12T06:24:17.451Z,1013.49
2017-04-12T06:24:43.070Z,1013.48
2017-04-12T06:25:08.623Z,1013.47
2017-04-12T06:25:34.267Z,1013.47
2017-04-12T06:25:59.950Z,1013.5
2017-04-12T06:26:25.506Z,1013.49
2017-04-12T06:26:51.775Z,1013.49
2017-04-12T06:28:00.423Z,1013.49
2017-04-12T06:28:25.988Z,1013.47
2017-04-12T06:28:52.129Z,1013.47
2017-04-12T06:29:17.693Z,1013.46
2017-04-12T06:29:43.376Z,1013.51
2017-04-12T06:30:08.996Z,1013.44
2017-04-12T06:30:34.601Z,1013.52
2017-04-12T06:31:00.212Z,1013.51
2017-04-12T06:31:25.862Z,1013.52
2017-04-12T06:33:17.318Z,1013.46
2017-04-12T06:33:42.872Z,1013.45
2017-04-12T06:34:08.514Z,1013.48
2017-04-12T06:34:34.149Z,1013.46
2017-04-12T06:34:59.699Z,1013.44
2017-04-12T06:35:25.351Z,1013.4
2017-04-12T06:35:50.923Z,1013.43
2017-04-12T06:36:59.393Z,1013.45
2017-04-12T06:37:25.093Z,1013.42
2017-04-12T06:37:50.675Z,1013.48
2017-04-12T06:38:16.254Z,1013.49
2017-04-12T06:38:41.807Z,1013.51
2017-04-12T06:39:07.405Z,1013.46
2017-04-12T06:39:32.969Z,1013.4
2017-04-12T06:39:58.541Z,1013.39
2017-04-12T06:40:24.119Z,1013.39
2017-04-12T06:40:49.683Z,1013.41
2017-04-12T06:41:15.252Z,1013.34
2017-04-12T06:41:40.807Z,1013.36
2017-04-12T06:42:06.383Z,1013.33
2017-04-12T06:42:31.971Z,1013.33
2017-04-12T06:42:57.553Z,1013.33
2017-04-12T06:43:23.122Z,1013.35
2017-04-12T06:43:48.703Z,1013.27
2017-04-12T06:44:14.264Z,1013.33
2017-04-12T06:44:39.839Z,1013.3
2017-04-12T06:45:05.421Z,1013.29
2017-04-12T06:45:31.005Z,1013.21
2017-04-12T06:45:56.564Z,1013.26
2017-04-12T06:46:22.145Z,1013.22
2017-04-12T06:46:47.683Z,1013.23
2017-04-12T06:47:13.223Z,1013.22
2017-04-12T06:47:38.798Z,1013.21
2017-04-12T06:48:04.367Z,1013.18
2017-04-12T06:48:29.938Z,1013.21
2017-04-12T06:48:55.520Z,1013.21
2017-04-12T06:49:21.152Z,1013.25
2017-04-12T06:49:46.715Z,1013.19
2017-04-12T06:50:12.298Z,1013.14
2017-04-12T06:50:37.860Z,1013.13
2017-04-12T06:51:03.446Z,1013.17
2017-04-12T06:51:29.068Z,1013.18
2017-04-12T06:51:54.650Z,1013.22
2017-04-12T06:52:20.226Z,1013.2
2017-04-12T06:52:45.781Z,1013.23
2017-04-12T06:53:11.341Z,1013.24
2017-04-12T06:53:36.902Z,1013.2
2017-04-12T06:54:02.532Z,1013.23
2017-04-12T06:54:28.131Z,1013.25
2017-04-12T06:54:53.723Z,1013.28
2017-04-12T06:55:19.341Z,1013.31
2017-04-12T06:55:44.882Z,1013.32
2017-04-12T06:56:10.425Z,1013.3
2017-04-12T06:56:36.001Z,1013.31
2017-04-12T06:57:01.713Z,1013.32
2017-04-12T06:57:27.280Z,1013.34
2017-04-12T06:58:35.832Z,1013.33
2017-04-12T06:59:01.395Z,1013.33
2017-04-12T06:59:26.951Z,1013.35
2017-04-12T06:59:52.587Z,1013.38
2017-04-12T07:00:18.121Z,1013.34
2017-04-12T07:00:43.672Z,1013.35
2017-04-12T07:01:09.234Z,1013.32
2017-04-12T07:01:34.766Z,1013.25
2017-04-12T07:02:00.332Z,1013.33
2017-04-12T07:02:25.870Z,1013.26
2017-04-12T07:02:51.451Z,1013.29
2017-04-12T07:03:16.989Z,1013.33
2017-04-12T07:03:42.532Z,1013.32
2017-04-12T07:04:08.127Z,1013.27
2017-04-12T07:04:33.677Z,1013.31
2017-04-12T07:04:59.210Z,1013.29
2017-04-12T07:05:24.758Z,1013.21
2017-04-12T07:05:50.315Z,1013.27
2017-04-12T07:06:15.933Z,1013.22
2017-04-12T07:06:41.495Z,1013.22
2017-04-12T07:07:07.060Z,1013.31
2017-04-12T07:07:32.613Z,1013.23
2017-04-12T07:07:58.328Z,1013.29
2017-04-12T07:08:23.921Z,1013.26
2017-04-12T07:08:49.479Z,1013.24
2017-04-12T07:09:15.036Z,1013.18
2017-04-12T07:09:40.619Z,1013.17
2017-04-12T07:10:06.172Z,1013.13
2017-04-12T07:10:31.715Z,1013.17
2017-04-12T07:10:57.250Z,1013.1
2017-04-12T07:11:22.803Z,1013.12
2017-04-12T07:11:48.337Z,1013.14
2017-04-12T07:12:13.894Z,1013.16
2017-04-12T07:13:32.747Z,1013.12
2017-04-12T07:13:58.321Z,1013.11
2017-04-12T07:14:23.882Z,1013.18
2017-04-12T07:14:49.454Z,1013.27
2017-04-12T07:15:15.004Z,1013.26
2017-04-12T07:15:40.606Z,1013.2
2017-04-12T07:16:06.171Z,1013.2
2017-04-12T07:16:31.741Z,1013.2
2017-04-12T07:16:57.298Z,1013.21
2017-04-12T07:17:22.855Z,1013.18
2017-04-12T07:17:48.423Z,1013.31
2017-04-12T07:18:13.983Z,1013.12
2017-04-12T07:18:39.538Z,1013.18
2017-04-12T07:19:05.111Z,1013.19
2017-04-12T07:19:30.664Z,1013.15
2017-04-12T07:19:56.224Z,1013.26
2017-04-12T07:20:21.799Z,1013.27
2017-04-12T07:20:47.370Z,1013.23
2017-04-12T07:21:12.933Z,1013.19
2017-04-12T07:21:38.553Z,1013.21
2017-04-12T07:22:04.105Z,1013.24
2017-04-12T07:22:29.670Z,1013.26
2017-04-12T07:22:55.240Z,1013.24
2017-04-12T07:23:20.943Z,1013.2
2017-04-12T07:23:46.522Z,1013.21
2017-04-12T07:24:12.125Z,1013.26
2017-04-12T07:24:37.781Z,1013.19
2017-04-12T07:25:03.338Z,1013.16
2017-04-12T07:25:28.969Z,1013.18
2017-04-12T07:25:54.698Z,1013.18
2017-04-12T07:26:20.435Z,1013.14
2017-04-12T07:26:45.997Z,1013.21
2017-04-12T07:27:11.615Z,1013.16
2017-04-12T07:27:37.313Z,1013.18
2017-04-12T07:28:02.882Z,1013.12
2017-04-12T07:28:28.454Z,1013.17
2017-04-12T07:28:54.057Z,1013.2
2017-04-12T07:29:19.604Z,1013.19
2017-04-12T07:29:45.174Z,1013.2
2017-04-12T07:30:10.745Z,1013.21
2017-04-12T07:30:36.335Z,1013.18
2017-04-12T07:31:02.039Z,1013.1
2017-04-12T07:31:27.584Z,1013.13
2017-04-12T07:31:53.165Z,1013.12
2017-04-12T07:32:18.820Z,1013.14
2017-04-12T07:32:44.402Z,1013.08
2017-04-12T07:33:09.985Z,1013.05
2017-04-12T07:33:35.660Z,1013.03
2017-04-12T07:34:01.225Z,1012.97
2017-04-12T07:34:26.794Z,1012.95
2017-04-12T07:34:52.385Z,1012.96
2017-04-12T07:35:17.969Z,1012.92
2017-04-12T07:35:43.514Z,1012.94
2017-04-12T07:36:09.101Z,1012.9
2017-04-12T07:36:34.685Z,1012.82
2017-04-12T07:37:00.238Z,1012.83
2017-04-12T07:37:25.816Z,1012.91
2017-04-12T07:37:51.364Z,1012.89
2017-04-12T07:38:16.919Z,1012.91
2017-04-12T07:38:42.625Z,1012.86
2017-04-12T07:39:08.193Z,1012.88
2017-04-12T07:39:33.755Z,1012.92
2017-04-12T07:39:59.452Z,1012.93
2017-04-12T07:40:25.024Z,1012.82
2017-04-12T07:40:50.649Z,1012.84
2017-04-12T07:41:16.226Z,1012.87
2017-04-12T07:41:41.782Z,1012.88
2017-04-12T07:42:07.338Z,1012.95
2017-04-12T07:42:32.909Z,1012.89
2017-04-12T07:42:58.512Z,1012.92
2017-04-12T07:43:24.090Z,1012.96
2017-04-12T07:43:49.658Z,1012.91
2017-04-12T07:44:15.376Z,1012.92
2017-04-12T07:44:40.940Z,1012.93
2017-04-12T07:45:06.510Z,1012.87
2017-04-12T07:45:32.212Z,1012.84
2017-04-12T07:45:57.811Z,1012.87
2017-04-12T07:46:23.384Z,1012.97
2017-04-12T07:46:48.963Z,1012.87
2017-04-12T07:47:14.658Z,1012.88
2017-04-12T07:47:40.217Z,1012.87
2017-04-12T07:48:05.790Z,1012.86
2017-04-12T07:48:31.350Z,1012.88
2017-04-12T07:48:56.912Z,1012.87
2017-04-12T07:49:22.485Z,1012.93
2017-04-12T07:49:48.046Z,1012.93
2017-04-12T07:50:13.606Z,1012.92
2017-04-12T07:50:39.163Z,1012.89
2017-04-12T07:51:04.733Z,1012.93
2017-04-12T07:51:30.301Z,1012.86
2017-04-12T07:51:55.858Z,1012.86
2017-04-12T07:52:21.447Z,1012.85
2017-04-12T07:52:47.010Z,1012.93
2017-04-12T07:53:12.739Z,1012.91
2017-04-12T07:53:38.310Z,1012.9
2017-04-12T07:54:03.922Z,1012.9
2017-04-12T07:54:29.503Z,1012.94
2017-04-12T07:54:55.059Z,1012.94
2017-04-12T07:55:20.628Z,1012.92
2017-04-12T07:55:46.194Z,1012.97
2017-04-12T07:56:11.764Z,1012.85
2017-04-12T07:56:37.465Z,1012.94
2017-04-12T07:57:03.061Z,1012.93
2017-04-12T07:57:28.655Z,1012.83
2017-04-12T07:57:54.213Z,1012.85
2017-04-12T07:58:19.787Z,1012.9
2017-04-12T07:58:45.411Z,1012.9
2017-04-12T07:59:10.909Z,1012.87
2017-04-12T07:59:36.473Z,1012.87
2017-04-12T08:00:02.158Z,1012.85
2017-04-12T08:00:27.717Z,1012.87
2017-04-12T08:00:53.287Z,1012.86
2017-04-12T08:01:18.841Z,1012.9
2017-04-12T08:01:44.393Z,1012.9
2017-04-12T08:02:09.946Z,1012.9
2017-04-12T08:02:35.511Z,1012.82
2017-04-12T08:03:01.040Z,1012.82
2017-04-12T08:03:26.621Z,1012.87
2017-04-12T08:03:52.152Z,1012.92
2017-04-12T08:04:17.701Z,1012.85
2017-04-12T08:04:43.260Z,1012.82
2017-04-12T08:05:08.952Z,1012.78
2017-04-12T08:05:34.500Z,1012.82
2017-04-12T08:06:00.132Z,1012.77
2017-04-12T08:06:25.690Z,1012.82
2017-04-12T08:06:51.245Z,1012.84
2017-04-12T08:07:16.779Z,1012.85
2017-04-12T08:07:42.320Z,1012.83
2017-04-12T08:08:07.932Z,1012.86
2017-04-12T08:08:33.515Z,1012.76
2017-04-12T08:08:59.082Z,1012.78
2017-04-12T08:09:24.644Z,1012.89
2017-04-12T08:09:50.305Z,1012.82
2017-04-12T08:10:15.869Z,1012.82
2017-04-12T08:10:41.439Z,1012.9
2017-04-12T08:11:07.208Z,1012.87
2017-04-12T08:11:32.764Z,1012.87
2017-04-12T08:11:58.323Z,1012.84
2017-04-12T08:12:23.896Z,1012.88
2017-04-12T08:12:49.493Z,1012.89
2017-04-12T08:13:15.043Z,1012.86
2017-04-12T08:13:40.610Z,1012.87
2017-04-12T08:14:06.215Z,1012.89
2017-04-12T08:14:31.779Z,1012.9
2017-04-12T08:14:57.348Z,1012.85
2017-04-12T08:15:22.909Z,1012.86
2017-04-12T08:15:48.525Z,1012.8
2017-04-12T08:16:14.047Z,1012.87
2017-04-12T08:16:39.620Z,1012.84
2017-04-12T08:17:05.180Z,1012.86
2017-04-12T08:17:30.780Z,1012.8
2017-04-12T08:17:56.336Z,1012.86
2017-04-12T08:18:21.884Z,1012.84
2017-04-12T08:18:47.449Z,1012.88